Time,TemperatureF,DewpointF,PressureIn,WindDirection,WindDirectionDegrees,WindSpeedMPH,WindSpeedGustMPH,Humidity,HourlyPrecipIn,Conditions,Clouds,dailyrainin,SoftwareType,DateUTC
2013-02-19 00:03:00,37.8,6.0,24.86,North,0,3.6,3.6,26,0.00,,---,0.00,VWS V13.01,2013-02-19 08:03:00,
2013-02-19 00:08:00,37.6,5.8,24.86,North,0,3.1,4.0,26,0.00,,---,0.00,VWS V13.01,2013-02-19 08:08:00,
2013-02-19 00:13:00,37.0,6.2,24.86,North,0,3.6,4.9,27,0.00,,---,0.00,VWS V13.01,2013-02-19 08:13:00,
2013-02-19 00:18:00,36.7,7.4,24.86,North,0,4.0,6.3,29,0.00,,---,0.00,VWS V13.01,2013-02-19 08:18:00,
2013-02-19 00:23:00,36.7,5.9,24.86,North,0,4.0,5.8,27,0.00,,---,0.00,VWS V13.01,2013-02-19 08:23:00,
2013-02-19 00:28:00,36.9,7.6,24.83,North,0,4.0,7.6,29,0.00,,---,0.00,VWS V13.01,2013-02-19 08:28:00,
2013-02-19 00:33:00,36.1,9.1,24.83,North,0,4.0,8.1,32,0.00,,---,0.00,VWS V13.01,2013-02-19 08:33:00,
2013-02-19 00:38:00,35.1,13.8,24.83,North,0,4.9,8.1,41,0.00,,---,0.00,VWS V13.01,2013-02-19 08:38:00,
2013-02-19 00:43:00,34.3,17.2,24.83,North,0,3.1,6.3,49,0.00,,---,0.00,VWS V13.01,2013-02-19 08:43:00,
2013-02-19 00:48:00,33.8,20.2,24.83,North,0,3.1,9.6,57,0.00,,---,0.00,VWS V13.01,2013-02-19 08:48:00,
2013-02-19 00:53:00,33.6,22.0,24.83,North,0,3.1,9.6,62,0.00,,---,0.00,VWS V13.01,2013-02-19 08:53:00,
2013-02-19 00:58:00,33.6,23.5,24.83,North,0,3.1,9.6,66,0.00,,---,0.00,VWS V13.01,2013-02-19 08:58:00,
2013-02-19 01:03:00,33.8,25.4,24.83,NNE,22,3.6,7.6,71,0.00,,---,0.00,VWS V13.01,2013-02-19 09:03:00,
2013-02-19 01:08:00,33.8,26.4,24.83,North,0,5.4,10.1,74,0.00,,---,0.00,VWS V13.01,2013-02-19 09:08:00,
2013-02-19 01:13:00,33.8,27.0,24.83,North,0,5.4,10.1,76,0.00,,---,0.00,VWS V13.01,2013-02-19 09:13:00,
2013-02-19 01:18:00,33.6,27.5,24.83,North,0,5.8,10.1,78,0.00,,---,0.00,VWS V13.01,2013-02-19 09:18:00,
2013-02-19 01:23:00,33.6,27.5,24.83,North,0,5.4,8.3,78,0.00,,---,0.00,VWS V13.01,2013-02-19 09:23:00,
2013-02-19 01:28:00,33.6,27.8,24.83,NW,315,6.3,10.1,79,0.00,,---,0.00,VWS V13.01,2013-02-19 09:28:00,
2013-02-19 01:33:00,33.4,27.9,24.83,North,0,7.6,11.0,80,0.00,,---,0.00,VWS V13.01,2013-02-19 09:33:00,
2013-02-19 01:38:00,33.4,27.9,24.83,NE,45,4.0,11.0,80,0.00,,---,0.00,VWS V13.01,2013-02-19 09:38:00,
2013-02-19 01:43:00,33.6,28.4,24.83,North,0,3.1,4.0,81,0.00,,---,0.00,VWS V13.01,2013-02-19 09:43:00,
2013-02-19 01:48:00,33.8,28.9,24.83,North,0,2.7,8.7,82,0.00,,---,0.00,VWS V13.01,2013-02-19 09:48:00,
2013-02-19 01:53:00,33.8,28.9,24.83,NNE,22,4.0,10.1,82,0.00,,---,0.00,VWS V13.01,2013-02-19 09:53:00,
2013-02-19 01:58:00,33.8,29.2,24.83,North,0,4.9,10.1,83,0.00,,---,0.00,VWS V13.01,2013-02-19 09:58:00,
2013-02-19 02:03:00,34.0,29.7,24.83,NNE,22,3.6,8.1,84,0.00,,---,0.00,VWS V13.01,2013-02-19 10:03:00,
2013-02-19 02:08:00,34.0,29.7,24.83,NE,45,5.8,10.1,84,0.00,,---,0.00,VWS V13.01,2013-02-19 10:08:00,
2013-02-19 02:13:00,34.0,30.0,24.83,North,0,4.9,10.1,85,0.00,,---,0.00,VWS V13.01,2013-02-19 10:13:00,
2013-02-19 02:18:00,34.0,30.0,24.83,NNE,22,8.1,10.1,85,0.00,,---,0.00,VWS V13.01,2013-02-19 10:18:00,
2013-02-19 02:23:00,34.0,30.2,24.83,North,0,7.6,12.8,86,0.00,,---,0.00,VWS V13.01,2013-02-19 10:23:00,
2013-02-19 02:28:00,33.8,30.1,24.80,NE,45,6.3,12.8,86,0.00,,---,0.00,VWS V13.01,2013-02-19 10:28:00,
2013-02-19 02:33:00,33.6,30.2,24.80,NE,45,2.7,12.8,87,0.00,,---,0.00,VWS V13.01,2013-02-19 10:33:00,
2013-02-19 02:38:00,33.4,30.0,24.80,NE,45,4.0,12.8,87,0.00,,---,0.00,VWS V13.01,2013-02-19 10:38:00,
2013-02-19 02:43:00,33.1,29.6,24.80,North,0,6.7,10.5,87,0.00,,---,0.00,VWS V13.01,2013-02-19 10:43:00,
2013-02-19 02:48:00,33.1,29.6,24.80,North,0,6.3,10.5,87,0.00,,---,0.00,VWS V13.01,2013-02-19 10:48:00,
2013-02-19 02:53:00,33.1,29.9,24.80,NE,45,6.3,10.5,88,0.00,,---,0.00,VWS V13.01,2013-02-19 10:53:00,
2013-02-19 02:58:00,32.9,29.7,24.80,NNE,22,5.8,10.5,88,0.00,,---,0.00,VWS V13.01,2013-02-19 10:58:00,
2013-02-19 03:03:00,33.1,29.9,24.80,NNE,22,8.3,8.3,88,0.00,,---,0.00,VWS V13.01,2013-02-19 11:03:00,
2013-02-19 03:08:00,32.9,29.7,24.80,NE,45,4.0,8.3,88,0.00,,---,0.00,VWS V13.01,2013-02-19 11:08:00,
2013-02-19 03:13:00,32.9,29.7,24.80,NNE,22,5.8,10.5,88,0.00,,---,0.00,VWS V13.01,2013-02-19 11:13:00,
2013-02-19 03:18:00,32.7,29.6,24.80,NE,45,6.3,10.5,88,0.00,,---,0.00,VWS V13.01,2013-02-19 11:18:00,
2013-02-19 03:23:00,32.7,29.6,24.80,NE,45,5.4,8.3,88,0.00,,---,0.00,VWS V13.01,2013-02-19 11:23:00,
2013-02-19 03:28:00,32.7,29.6,24.80,North,0,5.4,8.3,88,0.00,,---,0.00,VWS V13.01,2013-02-19 11:28:00,
2013-02-19 03:33:00,33.1,29.6,24.80,North,0,5.8,8.3,87,0.00,,---,0.00,VWS V13.01,2013-02-19 11:33:00,
2013-02-19 03:38:00,33.1,29.6,24.80,North,0,2.7,8.3,87,0.00,,---,0.00,VWS V13.01,2013-02-19 11:38:00,
2013-02-19 03:43:00,33.1,29.6,24.80,North,0,6.3,11.4,87,0.00,,---,0.00,VWS V13.01,2013-02-19 11:43:00,
2013-02-19 03:48:00,32.9,29.5,24.80,North,0,5.4,11.4,87,0.00,,---,0.00,VWS V13.01,2013-02-19 11:48:00,
2013-02-19 03:53:00,33.1,29.6,24.80,North,0,6.3,11.4,87,0.00,,---,0.00,VWS V13.01,2013-02-19 11:53:00,
2013-02-19 03:58:00,33.3,29.8,24.77,NW,315,4.9,11.4,87,0.00,,---,0.00,VWS V13.01,2013-02-19 11:58:00,
2013-02-19 04:03:00,33.3,30.1,24.77,North,0,4.9,6.7,88,0.00,,---,0.00,VWS V13.01,2013-02-19 12:03:00,
2013-02-19 04:08:00,33.1,29.9,24.77,North,0,5.8,10.1,88,0.00,,---,0.00,VWS V13.01,2013-02-19 12:08:00,
2013-02-19 04:14:00,33.3,30.1,24.80,North,0,2.7,12.3,88,0.00,,---,0.00,VWS V13.01,2013-02-19 12:14:00,
2013-02-19 04:19:00,33.3,30.1,24.80,North,0,5.8,12.3,88,0.00,,---,0.00,VWS V13.01,2013-02-19 12:19:00,
2013-02-19 04:24:00,33.4,30.5,24.80,NNW,338,7.2,9.6,89,0.00,,---,0.00,VWS V13.01,2013-02-19 12:24:00,
2013-02-19 04:28:00,33.6,30.7,24.77,North,0,6.3,11.9,89,0.00,,---,0.00,VWS V13.01,2013-02-19 12:28:00,
2013-02-19 04:34:00,33.6,30.7,24.77,NNE,22,3.6,13.2,89,0.00,,---,0.00,VWS V13.01,2013-02-19 12:34:00,
2013-02-19 04:39:00,33.3,30.4,24.77,North,0,6.3,13.2,89,0.00,,---,0.00,VWS V13.01,2013-02-19 12:39:00,
2013-02-19 04:44:00,33.3,30.4,24.77,North,0,5.4,8.1,89,0.00,,---,0.00,VWS V13.01,2013-02-19 12:44:00,
2013-02-19 04:49:00,33.3,30.4,24.77,NNW,338,10.5,10.5,89,0.00,,---,0.00,VWS V13.01,2013-02-19 12:49:00,
2013-02-19 04:53:00,33.3,30.6,24.77,North,0,5.8,11.0,90,0.00,,---,0.00,VWS V13.01,2013-02-19 12:53:00,
2013-02-19 04:58:00,33.3,30.6,24.80,North,0,3.6,11.0,90,0.00,,---,0.00,VWS V13.01,2013-02-19 12:58:00,
2013-02-19 05:04:00,33.1,30.5,24.80,North,0,2.7,9.6,90,0.00,,---,0.00,VWS V13.01,2013-02-19 13:04:00,
2013-02-19 05:09:00,33.1,30.5,24.80,North,0,3.6,11.0,90,0.00,,---,0.00,VWS V13.01,2013-02-19 13:09:00,
2013-02-19 05:14:00,32.9,30.3,24.77,North,0,4.0,11.0,90,0.00,,---,0.00,VWS V13.01,2013-02-19 13:14:00,
2013-02-19 05:19:00,32.7,30.1,24.77,NNE,22,3.6,11.4,90,0.00,,---,0.00,VWS V13.01,2013-02-19 13:19:00,
2013-02-19 05:24:00,32.7,30.1,24.77,North,0,8.7,10.1,90,0.00,,---,0.00,VWS V13.01,2013-02-19 13:24:00,
2013-02-19 05:29:00,32.7,30.4,24.80,North,0,8.3,13.2,91,0.00,,---,0.00,VWS V13.01,2013-02-19 13:29:00,
2013-02-19 05:34:00,32.5,30.2,24.80,North,0,4.5,13.2,91,0.00,,---,0.00,VWS V13.01,2013-02-19 13:34:00,
2013-02-19 05:39:00,32.5,30.2,24.80,North,0,9.6,13.2,91,0.00,,---,0.00,VWS V13.01,2013-02-19 13:39:00,
2013-02-19 05:44:00,32.5,30.2,24.80,North,0,5.8,11.4,91,0.00,,---,0.00,VWS V13.01,2013-02-19 13:44:00,
2013-02-19 05:49:00,32.4,30.0,24.80,North,0,5.8,11.4,91,0.00,,---,0.00,VWS V13.01,2013-02-19 13:49:00,
2013-02-19 05:54:00,32.2,29.9,24.80,North,0,5.4,15.0,91,0.00,,---,0.00,VWS V13.01,2013-02-19 13:54:00,
2013-02-19 05:59:00,32.2,29.9,24.80,North,0,3.6,3.6,91,0.00,,---,0.00,VWS V13.01,2013-02-19 13:59:00,
2013-02-19 06:04:00,32.2,29.9,24.80,North,0,6.3,8.3,91,0.00,,---,0.00,VWS V13.01,2013-02-19 14:04:00,
2013-02-19 06:09:00,31.8,29.5,24.80,NW,315,6.3,11.4,91,0.00,,---,0.00,VWS V13.01,2013-02-19 14:09:00,
2013-02-19 06:14:00,31.6,29.3,24.80,North,0,4.0,11.4,91,0.00,,---,0.00,VWS V13.01,2013-02-19 14:14:00,
2013-02-19 06:19:00,31.5,29.1,24.80,NW,315,8.3,11.4,91,0.00,,---,0.00,VWS V13.01,2013-02-19 14:19:00,
2013-02-19 06:24:00,31.3,29.0,24.80,NNW,338,3.6,7.2,91,0.00,,---,0.00,VWS V13.01,2013-02-19 14:24:00,
2013-02-19 06:29:00,31.3,29.0,24.80,North,0,5.8,7.6,91,0.00,,---,0.00,VWS V13.01,2013-02-19 14:29:00,
2013-02-19 06:34:00,31.3,29.2,24.80,North,0,2.7,11.0,92,0.00,,---,0.00,VWS V13.01,2013-02-19 14:34:00,
2013-02-19 06:39:00,31.3,29.2,24.80,NE,45,4.0,11.0,92,0.00,,---,0.00,VWS V13.01,2013-02-19 14:39:00,
2013-02-19 06:44:00,31.3,29.2,24.80,North,0,4.5,8.7,92,0.00,,---,0.00,VWS V13.01,2013-02-19 14:44:00,
2013-02-19 06:49:00,31.5,29.4,24.80,North,0,6.3,8.7,92,0.00,,---,0.00,VWS V13.01,2013-02-19 14:49:00,
2013-02-19 06:54:00,31.3,29.2,24.80,NE,45,3.1,8.7,92,0.00,,---,0.00,VWS V13.01,2013-02-19 14:54:00,
2013-02-19 06:59:00,31.5,29.4,24.80,North,0,3.6,8.7,92,0.00,,---,0.00,VWS V13.01,2013-02-19 14:59:00,
2013-02-19 07:04:00,31.5,29.4,24.80,NE,45,6.3,8.3,92,0.00,,---,0.00,VWS V13.01,2013-02-19 15:04:00,
2013-02-19 07:09:00,31.3,29.2,24.80,North,0,4.9,8.3,92,0.00,,---,0.00,VWS V13.01,2013-02-19 15:09:00,
2013-02-19 07:14:00,31.1,29.0,24.80,North,0,5.4,8.3,92,0.00,,---,0.00,VWS V13.01,2013-02-19 15:14:00,
2013-02-19 07:19:00,30.9,28.9,24.80,North,0,3.1,8.3,92,0.00,,---,0.00,VWS V13.01,2013-02-19 15:19:00,
2013-02-19 07:24:00,30.7,28.7,24.80,North,0,5.4,8.1,92,0.00,,---,0.00,VWS V13.01,2013-02-19 15:24:00,
2013-02-19 07:29:00,30.7,28.7,24.77,NE,45,4.0,8.1,92,0.00,,---,0.00,VWS V13.01,2013-02-19 15:29:00,
2013-02-19 07:34:00,30.6,28.5,24.77,North,0,5.8,13.2,92,0.00,,---,0.00,VWS V13.01,2013-02-19 15:34:00,
2013-02-19 07:39:00,30.4,28.3,24.77,North,0,7.2,13.2,92,0.00,,---,0.00,VWS V13.01,2013-02-19 15:39:00,
2013-02-19 07:44:00,30.4,28.3,24.77,NE,45,5.4,8.3,92,0.00,,---,0.00,VWS V13.01,2013-02-19 15:44:00,
2013-02-19 07:49:00,30.0,28.0,24.77,North,0,4.9,11.0,92,0.00,,---,0.00,VWS V13.01,2013-02-19 15:49:00,
2013-02-19 07:54:00,30.0,28.0,24.77,NE,45,3.6,11.0,92,0.00,,---,0.00,VWS V13.01,2013-02-19 15:54:00,
2013-02-19 07:59:00,30.2,28.2,24.77,North,0,3.1,3.1,92,0.00,,---,0.00,VWS V13.01,2013-02-19 15:59:00,
2013-02-19 08:04:00,30.2,28.2,24.77,North,0,5.4,7.6,92,0.00,,---,0.00,VWS V13.01,2013-02-19 16:04:00,
2013-02-19 08:09:00,30.2,28.2,24.77,North,0,2.2,7.6,92,0.00,,---,0.00,VWS V13.01,2013-02-19 16:09:00,
2013-02-19 08:14:00,30.2,28.2,24.77,North,0,2.7,8.7,92,0.00,,---,0.00,VWS V13.01,2013-02-19 16:14:00,
2013-02-19 08:19:00,30.4,28.3,24.77,NE,45,8.7,8.7,92,0.00,,---,0.00,VWS V13.01,2013-02-19 16:19:00,
2013-02-19 08:24:00,30.2,28.2,24.77,NE,45,6.3,8.7,92,0.00,,---,0.00,VWS V13.01,2013-02-19 16:24:00,
2013-02-19 08:29:00,30.4,28.3,24.77,NNW,338,3.6,8.7,92,0.00,,---,0.00,VWS V13.01,2013-02-19 16:29:00,
2013-02-19 08:34:00,30.2,28.2,24.77,NNW,338,4.0,8.7,92,0.00,,---,0.00,VWS V13.01,2013-02-19 16:34:00,
2013-02-19 08:39:00,30.2,28.2,24.77,North,0,4.0,5.8,92,0.00,,---,0.00,VWS V13.01,2013-02-19 16:39:00,
2013-02-19 08:44:00,30.4,28.3,24.77,NE,45,6.3,8.3,92,0.00,,---,0.00,VWS V13.01,2013-02-19 16:44:00,
2013-02-19 08:50:00,30.4,28.3,24.77,NW,315,3.6,10.1,92,0.00,,---,0.00,VWS V13.01,2013-02-19 16:50:00,
2013-02-19 08:55:00,30.4,28.3,24.77,North,0,4.9,11.9,92,0.00,,---,0.00,VWS V13.01,2013-02-19 16:55:00,
2013-02-19 09:00:00,30.2,28.2,24.77,North,0,4.0,8.3,92,0.00,,---,0.00,VWS V13.01,2013-02-19 17:00:00,
2013-02-19 09:05:00,30.2,28.2,24.77,North,0,5.8,8.7,92,0.00,,---,0.00,VWS V13.01,2013-02-19 17:05:00,
2013-02-19 09:09:00,30.2,28.2,24.77,North,0,5.4,8.7,92,0.00,,---,0.00,VWS V13.01,2013-02-19 17:09:00,
2013-02-19 09:15:00,30.4,28.3,24.77,North,0,8.7,8.7,92,0.00,,---,0.00,VWS V13.01,2013-02-19 17:15:00,
2013-02-19 09:20:00,30.4,28.3,24.77,North,0,3.1,5.4,92,0.00,,---,0.00,VWS V13.01,2013-02-19 17:20:00,
2013-02-19 09:25:00,30.4,28.3,24.77,NE,45,2.7,11.0,92,0.00,,---,0.00,VWS V13.01,2013-02-19 17:25:00,
2013-02-19 09:30:00,30.4,28.3,24.77,North,0,7.6,11.0,92,0.00,,---,0.00,VWS V13.01,2013-02-19 17:30:00,
2013-02-19 09:35:00,30.4,28.3,24.77,NE,45,5.8,11.0,92,0.00,,---,0.00,VWS V13.01,2013-02-19 17:35:00,
2013-02-19 09:40:00,30.4,28.3,24.77,East,90,7.2,10.1,92,0.00,,---,0.00,VWS V13.01,2013-02-19 17:40:00,
2013-02-19 09:45:00,30.4,28.3,24.77,North,0,6.3,12.3,92,0.00,,---,0.00,VWS V13.01,2013-02-19 17:45:00,
2013-02-19 09:50:00,30.6,28.5,24.77,North,0,3.6,15.4,92,0.00,,---,0.00,VWS V13.01,2013-02-19 17:50:00,
2013-02-19 09:55:00,30.7,28.7,24.77,NNE,22,5.4,15.4,92,0.00,,---,0.00,VWS V13.01,2013-02-19 17:55:00,
2013-02-19 10:00:00,30.7,28.7,24.77,North,0,5.4,8.1,92,0.00,,---,0.00,VWS V13.01,2013-02-19 18:00:00,
2013-02-19 10:05:00,30.7,28.7,24.77,North,0,6.7,8.1,92,0.00,,---,0.00,VWS V13.01,2013-02-19 18:05:00,
2013-02-19 10:10:00,30.6,28.5,24.77,North,0,7.2,11.0,92,0.00,,---,0.00,VWS V13.01,2013-02-19 18:10:00,
2013-02-19 10:15:00,30.7,28.7,24.77,North,0,2.7,11.0,92,0.00,,---,0.00,VWS V13.01,2013-02-19 18:15:00,
2013-02-19 10:20:00,30.9,28.9,24.77,North,0,4.9,4.9,92,0.00,,---,0.00,VWS V13.01,2013-02-19 18:20:00,
2013-02-19 10:25:00,30.9,28.9,24.77,NE,45,2.7,8.7,92,0.00,,---,0.00,VWS V13.01,2013-02-19 18:25:00,
2013-02-19 10:30:00,30.9,28.9,24.77,North,0,5.4,8.7,92,0.00,,---,0.00,VWS V13.01,2013-02-19 18:30:00,
2013-02-19 10:35:00,31.1,29.0,24.77,NE,45,4.9,12.8,92,0.00,,---,0.00,VWS V13.01,2013-02-19 18:35:00,
2013-02-19 10:40:00,31.3,29.2,24.77,North,0,4.9,7.6,92,0.00,,---,0.00,VWS V13.01,2013-02-19 18:40:00,
2013-02-19 10:45:00,31.5,29.4,24.77,North,0,4.9,11.4,92,0.00,,---,0.00,VWS V13.01,2013-02-19 18:45:00,
2013-02-19 10:50:00,31.6,29.6,24.77,NE,45,7.2,11.4,92,0.00,,---,0.00,VWS V13.01,2013-02-19 18:50:00,
2013-02-19 10:55:00,31.6,29.6,24.77,North,0,3.1,11.4,92,0.00,,---,0.00,VWS V13.01,2013-02-19 18:55:00,
2013-02-19 11:00:00,31.8,30.0,24.77,NNE,22,7.6,7.6,93,0.00,,---,0.00,VWS V13.01,2013-02-19 19:00:00,
2013-02-19 11:05:00,31.8,30.0,24.77,NE,45,7.6,7.6,93,0.00,,---,0.00,VWS V13.01,2013-02-19 19:05:00,
2013-02-19 11:10:00,31.6,29.6,24.77,North,0,2.7,11.0,92,0.00,,---,0.00,VWS V13.01,2013-02-19 19:10:00,
2013-02-19 11:15:00,31.8,30.0,24.77,North,0,4.0,11.0,93,0.00,,---,0.00,VWS V13.01,2013-02-19 19:15:00,
2013-02-19 11:20:00,32.2,30.4,24.77,NE,45,8.1,9.2,93,0.00,,---,0.00,VWS V13.01,2013-02-19 19:20:00,
2013-02-19 11:25:00,32.2,30.4,24.77,North,0,5.8,11.0,93,0.00,,---,0.00,VWS V13.01,2013-02-19 19:25:00,
2013-02-19 11:30:00,32.2,30.4,24.77,North,0,6.3,11.0,93,0.00,,---,0.00,VWS V13.01,2013-02-19 19:30:00,
2013-02-19 11:35:00,32.2,30.4,24.77,NNW,338,5.8,11.0,93,0.00,,---,0.00,VWS V13.01,2013-02-19 19:35:00,
2013-02-19 11:40:00,32.0,30.2,24.77,North,0,3.6,9.6,93,0.00,,---,0.00,VWS V13.01,2013-02-19 19:40:00,
2013-02-19 11:45:00,32.0,30.2,24.75,ENE,68,5.8,11.0,93,0.00,,---,0.00,VWS V13.01,2013-02-19 19:45:00,
2013-02-19 11:50:00,32.2,30.4,24.75,North,0,7.6,11.0,93,0.00,,---,0.00,VWS V13.01,2013-02-19 19:50:00,
2013-02-19 11:55:00,32.2,30.4,24.75,NNE,22,6.3,12.3,93,0.00,,---,0.00,VWS V13.01,2013-02-19 19:55:00,
2013-02-19 12:00:00,32.2,30.4,24.77,North,0,7.6,10.1,93,0.00,,---,0.00,VWS V13.01,2013-02-19 20:00:00,
2013-02-19 12:05:00,32.0,30.2,24.77,North,0,3.6,13.2,93,0.00,,---,0.00,VWS V13.01,2013-02-19 20:05:00,
2013-02-19 12:10:00,32.0,30.2,24.77,North,0,4.9,13.2,93,0.00,,---,0.00,VWS V13.01,2013-02-19 20:10:00,
2013-02-19 12:15:00,32.2,30.4,24.75,NNW,338,8.3,13.2,93,0.00,,---,0.00,VWS V13.01,2013-02-19 20:15:00,
2013-02-19 12:20:00,32.2,30.4,24.75,NE,45,8.3,8.3,93,0.00,,---,0.00,VWS V13.01,2013-02-19 20:20:00,
2013-02-19 12:25:00,32.4,30.6,24.75,North,0,7.2,9.6,93,0.00,,---,0.00,VWS V13.01,2013-02-19 20:25:00,
2013-02-19 12:31:00,32.2,30.4,24.75,North,0,5.8,9.6,93,0.00,,---,0.00,VWS V13.01,2013-02-19 20:31:00,
2013-02-19 12:36:00,32.4,30.6,24.75,North,0,5.8,9.6,93,0.00,,---,0.00,VWS V13.01,2013-02-19 20:36:00,
2013-02-19 12:41:00,32.4,30.6,24.75,North,0,4.0,8.3,93,0.00,,---,0.00,VWS V13.01,2013-02-19 20:41:00,
2013-02-19 12:46:00,32.4,30.6,24.75,NE,45,5.4,10.5,93,0.00,,---,0.00,VWS V13.01,2013-02-19 20:46:00,
2013-02-19 12:51:00,32.4,30.6,24.75,NE,45,3.6,12.8,93,0.00,,---,0.00,VWS V13.01,2013-02-19 20:51:00,
2013-02-19 12:56:00,32.4,30.6,24.75,North,0,5.8,12.8,93,0.00,,---,0.00,VWS V13.01,2013-02-19 20:56:00,
2013-02-19 13:01:00,32.2,30.4,24.75,North,0,4.0,8.1,93,0.00,,---,0.00,VWS V13.01,2013-02-19 21:01:00,
2013-02-19 13:06:00,32.2,30.4,24.75,North,0,5.4,11.0,93,0.00,,---,0.00,VWS V13.01,2013-02-19 21:06:00,
2013-02-19 13:11:00,32.4,30.6,24.75,North,0,7.2,11.0,93,0.00,,---,0.00,VWS V13.01,2013-02-19 21:11:00,
2013-02-19 13:16:00,32.5,30.7,24.72,NNE,22,3.6,11.0,93,0.00,,---,0.00,VWS V13.01,2013-02-19 21:16:00,
2013-02-19 13:21:00,32.5,30.7,24.72,NNE,22,3.1,4.9,93,0.00,,---,0.00,VWS V13.01,2013-02-19 21:21:00,
2013-02-19 13:26:00,32.5,30.7,24.72,North,0,4.9,8.1,93,0.00,,---,0.00,VWS V13.01,2013-02-19 21:26:00,
2013-02-19 13:31:00,32.2,30.4,24.72,NE,45,4.0,8.3,93,0.00,,---,0.00,VWS V13.01,2013-02-19 21:31:00,
2013-02-19 13:36:00,32.2,30.4,24.72,NNE,22,3.1,8.3,93,0.00,,---,0.00,VWS V13.01,2013-02-19 21:36:00,
2013-02-19 13:41:00,32.4,30.6,24.72,NNE,22,4.0,6.3,93,0.00,,---,0.00,VWS V13.01,2013-02-19 21:41:00,
2013-02-19 13:46:00,32.4,30.8,24.72,North,0,6.7,8.7,94,0.00,,---,0.00,VWS V13.01,2013-02-19 21:46:00,
2013-02-19 13:51:00,32.4,30.8,24.72,North,0,4.9,11.0,94,0.00,,---,0.00,VWS V13.01,2013-02-19 21:51:00,
2013-02-19 13:56:00,32.5,31.0,24.72,North,0,6.3,11.0,94,0.00,,---,0.00,VWS V13.01,2013-02-19 21:56:00,
2013-02-19 14:01:00,32.7,31.2,24.72,North,0,2.7,8.7,94,0.00,,---,0.00,VWS V13.01,2013-02-19 22:01:00,
2013-02-19 14:06:00,32.5,31.0,24.72,North,0,3.6,8.7,94,0.00,,---,0.00,VWS V13.01,2013-02-19 22:06:00,
2013-02-19 14:11:00,32.5,31.0,24.72,North,0,8.1,8.7,94,0.00,,---,0.00,VWS V13.01,2013-02-19 22:11:00,
2013-02-19 14:16:00,32.5,31.0,24.72,North,0,4.0,8.7,94,0.00,,---,0.00,VWS V13.01,2013-02-19 22:16:00,
2013-02-19 14:21:00,32.5,31.0,24.72,NE,45,6.7,8.7,94,0.00,,---,0.00,VWS V13.01,2013-02-19 22:21:00,
2013-02-19 14:26:00,32.7,31.2,24.72,North,0,2.7,8.7,94,0.00,,---,0.00,VWS V13.01,2013-02-19 22:26:00,
2013-02-19 14:31:00,32.5,31.0,24.69,North,0,3.1,8.7,94,0.00,,---,0.00,VWS V13.01,2013-02-19 22:31:00,
2013-02-19 14:36:00,32.5,31.0,24.69,NE,45,7.6,10.1,94,0.00,,---,0.00,VWS V13.01,2013-02-19 22:36:00,
2013-02-19 14:41:00,32.5,31.0,24.69,NNE,22,2.2,3.6,94,0.00,,---,0.00,VWS V13.01,2013-02-19 22:41:00,
2013-02-19 14:46:00,32.5,31.0,24.69,North,0,6.3,8.1,94,0.00,,---,0.00,VWS V13.01,2013-02-19 22:46:00,
2013-02-19 14:51:00,32.5,31.0,24.69,NNE,22,4.9,10.1,94,0.00,,---,0.00,VWS V13.01,2013-02-19 22:51:00,
2013-02-19 14:56:00,32.7,31.2,24.69,North,0,6.3,10.1,94,0.00,,---,0.00,VWS V13.01,2013-02-19 22:56:00,
2013-02-19 15:01:00,32.7,31.2,24.69,North,0,8.1,11.0,94,0.00,,---,0.00,VWS V13.01,2013-02-19 23:01:00,
2013-02-19 15:06:00,32.5,31.0,24.69,NNE,22,4.5,11.9,94,0.00,,---,0.00,VWS V13.01,2013-02-19 23:06:00,
2013-02-19 15:11:00,32.5,31.0,24.69,North,0,8.1,12.3,94,0.00,,---,0.00,VWS V13.01,2013-02-19 23:11:00,
2013-02-19 15:16:00,32.5,31.0,24.69,North,0,5.4,12.3,94,0.00,,---,0.00,VWS V13.01,2013-02-19 23:16:00,
2013-02-19 15:21:00,32.5,31.0,24.69,NNW,338,10.1,10.1,94,0.00,,---,0.00,VWS V13.01,2013-02-19 23:21:00,
2013-02-19 15:26:00,32.5,31.0,24.69,North,0,11.9,11.9,94,0.00,,---,0.00,VWS V13.01,2013-02-19 23:26:00,
2013-02-19 15:32:00,32.7,31.2,24.69,North,0,6.3,11.9,94,0.00,,---,0.00,VWS V13.01,2013-02-19 23:32:00,
2013-02-19 15:37:00,32.7,31.2,24.69,NNW,338,6.3,11.9,94,0.00,,---,0.00,VWS V13.01,2013-02-19 23:37:00,
2013-02-19 15:42:00,32.9,31.4,24.69,North,0,5.8,10.1,94,0.00,,---,0.00,VWS V13.01,2013-02-19 23:42:00,
2013-02-19 15:47:00,33.1,31.5,24.69,NNW,338,5.8,10.1,94,0.00,,---,0.00,VWS V13.01,2013-02-19 23:47:00,
2013-02-19 15:52:00,33.1,31.5,24.69,North,0,8.7,12.3,94,0.00,,---,0.00,VWS V13.01,2013-02-19 23:52:00,
2013-02-19 15:57:00,33.1,31.5,24.66,North,0,10.1,12.3,94,0.00,,---,0.00,VWS V13.01,2013-02-19 23:57:00,
2013-02-19 16:02:00,32.9,31.6,24.66,North,0,6.3,10.1,95,0.00,,---,0.00,VWS V13.01,2013-02-20 00:02:00,
2013-02-19 16:07:00,32.9,31.6,24.66,North,0,5.8,10.1,95,0.00,,---,0.00,VWS V13.01,2013-02-20 00:07:00,
2013-02-19 16:12:00,33.1,31.8,24.66,North,0,7.2,14.5,95,0.00,,---,0.00,VWS V13.01,2013-02-20 00:12:00,
2013-02-19 16:17:00,32.5,31.3,24.66,North,0,8.3,14.5,95,0.00,,---,0.00,VWS V13.01,2013-02-20 00:17:00,
2013-02-19 16:22:00,32.2,30.9,24.66,NW,315,5.8,10.5,95,0.00,,---,0.00,VWS V13.01,2013-02-20 00:22:00,
2013-02-19 16:27:00,32.2,30.9,24.69,North,0,3.6,10.5,95,0.00,,---,0.00,VWS V13.01,2013-02-20 00:27:00,
2013-02-19 16:32:00,32.2,30.9,24.69,North,0,5.4,11.4,95,0.00,,---,0.00,VWS V13.01,2013-02-20 00:32:00,
2013-02-19 16:37:00,32.4,31.1,24.69,North,0,4.9,12.3,95,0.00,,---,0.00,VWS V13.01,2013-02-20 00:37:00,
2013-02-19 16:42:00,32.5,31.3,24.66,NNW,338,3.1,10.1,95,0.00,,---,0.00,VWS V13.01,2013-02-20 00:42:00,
2013-02-19 16:47:00,32.5,31.3,24.66,North,0,5.8,10.1,95,0.00,,---,0.00,VWS V13.01,2013-02-20 00:47:00,
2013-02-19 16:52:00,32.5,31.3,24.66,North,0,0.0,10.1,95,0.00,,---,0.00,VWS V13.01,2013-02-20 00:52:00,
2013-02-19 16:57:00,32.5,31.3,24.66,North,0,4.0,10.1,95,0.00,,---,0.00,VWS V13.01,2013-02-20 00:57:00,
2013-02-19 17:02:00,32.5,31.3,24.66,North,0,0.0,2.2,95,0.00,,---,0.00,VWS V13.01,2013-02-20 01:02:00,
2013-02-19 17:07:00,32.4,31.1,24.66,NE,45,5.4,5.4,95,0.00,,---,0.00,VWS V13.01,2013-02-20 01:07:00,
2013-02-19 17:12:00,32.2,30.9,24.66,North,0,8.3,11.0,95,0.00,,---,0.00,VWS V13.01,2013-02-20 01:12:00,
2013-02-19 17:17:00,32.2,30.9,24.66,North,0,11.0,11.0,95,0.00,,---,0.00,VWS V13.01,2013-02-20 01:17:00,
2013-02-19 17:22:00,32.2,30.9,24.66,North,0,4.0,7.6,95,0.00,,---,0.00,VWS V13.01,2013-02-20 01:22:00,
2013-02-19 17:27:00,32.2,30.9,24.66,NNW,338,8.1,8.1,95,0.00,,---,0.00,VWS V13.01,2013-02-20 01:27:00,
2013-02-19 17:32:00,32.0,30.7,24.66,NW,315,4.9,8.1,95,0.00,,---,0.00,VWS V13.01,2013-02-20 01:32:00,
2013-02-19 17:37:00,32.0,30.7,24.66,North,0,3.6,12.3,95,0.00,,---,0.00,VWS V13.01,2013-02-20 01:37:00,
2013-02-19 17:42:00,31.8,30.5,24.66,North,0,7.6,10.1,95,0.00,,---,0.00,VWS V13.01,2013-02-20 01:42:00,
2013-02-19 17:47:00,31.6,30.4,24.66,North,0,8.3,10.1,95,0.00,,---,0.00,VWS V13.01,2013-02-20 01:47:00,
2013-02-19 17:52:00,31.8,30.5,24.66,North,0,3.6,10.1,95,0.00,,---,0.00,VWS V13.01,2013-02-20 01:52:00,
2013-02-19 17:57:00,31.8,30.5,24.66,North,0,0.0,10.1,95,0.00,,---,0.00,VWS V13.01,2013-02-20 01:57:00,
2013-02-19 18:02:00,31.6,30.4,24.66,North,0,0.0,0.0,95,0.00,,---,0.00,VWS V13.01,2013-02-20 02:02:00,
2013-02-19 18:07:00,31.5,30.2,24.66,North,0,0.0,0.0,95,0.00,,---,0.00,VWS V13.01,2013-02-20 02:07:00,
2013-02-19 18:12:00,31.5,30.2,24.66,NNW,338,0.0,0.0,95,0.00,,---,0.00,VWS V13.01,2013-02-20 02:12:00,
2013-02-19 18:17:00,31.3,30.0,24.66,North,0,0.0,0.0,95,0.00,,---,0.00,VWS V13.01,2013-02-20 02:17:00,
2013-02-19 18:22:00,31.1,29.8,24.66,North,0,0.0,0.0,95,0.00,,---,0.00,VWS V13.01,2013-02-20 02:22:00,
2013-02-19 18:27:00,31.1,29.8,24.66,North,0,0.0,0.0,95,0.00,,---,0.00,VWS V13.01,2013-02-20 02:27:00,
2013-02-19 18:33:00,31.1,29.8,24.66,NW,315,0.0,0.0,95,0.00,,---,0.00,VWS V13.01,2013-02-20 02:33:00,
2013-02-19 18:38:00,31.1,29.8,24.66,NNW,338,0.0,0.0,95,0.00,,---,0.00,VWS V13.01,2013-02-20 02:38:00,
2013-02-19 18:43:00,31.1,29.8,24.66,North,0,0.0,0.0,95,0.00,,---,0.00,VWS V13.01,2013-02-20 02:43:00,
2013-02-19 18:48:00,31.1,29.8,24.66,NNW,338,0.0,0.0,95,0.00,,---,0.00,VWS V13.01,2013-02-20 02:48:00,
2013-02-19 18:53:00,31.1,29.8,24.66,NNW,338,0.0,0.0,95,0.00,,---,0.00,VWS V13.01,2013-02-20 02:53:00,
2013-02-19 18:58:00,31.1,29.8,24.66,North,0,0.0,0.0,95,0.00,,---,0.00,VWS V13.01,2013-02-20 02:58:00,
2013-02-19 19:03:00,31.1,30.1,24.66,NNW,338,0.0,0.0,96,0.00,,---,0.00,VWS V13.01,2013-02-20 03:03:00,
2013-02-19 19:08:00,30.9,29.9,24.66,WNW,292,0.0,0.0,96,0.00,,---,0.00,VWS V13.01,2013-02-20 03:08:00,
2013-02-19 19:13:00,30.9,29.9,24.66,North,0,0.0,0.0,96,0.00,,---,0.00,VWS V13.01,2013-02-20 03:13:00,
2013-02-19 19:18:00,30.7,29.7,24.66,North,0,0.0,0.0,96,0.00,,---,0.00,VWS V13.01,2013-02-20 03:18:00,
2013-02-19 19:23:00,30.7,29.7,24.66,North,0,0.0,0.0,96,0.00,,---,0.00,VWS V13.01,2013-02-20 03:23:00,
2013-02-19 19:28:00,30.7,29.7,24.66,NNW,338,0.0,0.0,96,0.00,,---,0.00,VWS V13.01,2013-02-20 03:28:00,
2013-02-19 19:33:00,30.7,29.7,24.66,NNW,338,0.0,11.0,96,0.00,,---,0.00,VWS V13.01,2013-02-20 03:33:00,
2013-02-19 19:38:00,30.7,29.7,24.66,North,0,0.0,11.0,96,0.00,,---,0.00,VWS V13.01,2013-02-20 03:38:00,
2013-02-19 19:43:00,30.7,29.7,24.66,North,0,0.0,0.0,96,0.00,,---,0.00,VWS V13.01,2013-02-20 03:43:00,
2013-02-19 19:48:00,30.7,29.7,24.66,North,0,0.0,0.0,96,0.00,,---,0.00,VWS V13.01,2013-02-20 03:48:00,
2013-02-19 19:53:00,30.7,29.7,24.66,NNW,338,0.0,0.0,96,0.00,,---,0.00,VWS V13.01,2013-02-20 03:53:00,
2013-02-19 19:58:00,30.7,29.7,24.63,North,0,0.0,0.0,96,0.00,,---,0.00,VWS V13.01,2013-02-20 03:58:00,
2013-02-19 20:03:00,30.7,29.7,24.63,North,0,0.0,0.0,96,0.00,,---,0.00,VWS V13.01,2013-02-20 04:03:00,
2013-02-19 20:08:00,30.7,29.7,24.63,NNW,338,0.0,0.0,96,0.00,,---,0.00,VWS V13.01,2013-02-20 04:08:00,
2013-02-19 20:13:00,30.7,29.7,24.63,North,0,0.0,0.0,96,0.00,,---,0.00,VWS V13.01,2013-02-20 04:13:00,
2013-02-19 20:18:00,30.6,29.6,24.63,North,0,0.0,0.0,96,0.00,,---,0.00,VWS V13.01,2013-02-20 04:18:00,
2013-02-19 20:23:00,30.7,29.7,24.63,North,0,0.0,0.0,96,0.00,,---,0.00,VWS V13.01,2013-02-20 04:23:00,
2013-02-19 20:28:00,30.7,29.7,24.63,NNE,22,0.0,0.0,96,0.00,,---,0.00,VWS V13.01,2013-02-20 04:28:00,
2013-02-19 20:33:00,30.6,29.6,24.63,NE,45,0.0,0.0,96,0.00,,---,0.00,VWS V13.01,2013-02-20 04:33:00,
2013-02-19 20:38:00,30.7,29.7,24.63,North,0,0.0,0.0,96,0.00,,---,0.00,VWS V13.01,2013-02-20 04:38:00,
2013-02-19 20:43:00,30.7,29.7,24.63,NNW,338,0.0,0.0,96,0.00,,---,0.00,VWS V13.01,2013-02-20 04:43:00,
2013-02-19 20:48:00,30.7,29.7,24.63,North,0,0.0,0.0,96,0.00,,---,0.00,VWS V13.01,2013-02-20 04:48:00,
2013-02-19 20:53:00,30.7,29.7,24.63,North,0,0.0,0.0,96,0.00,,---,0.00,VWS V13.01,2013-02-20 04:53:00,
2013-02-19 20:58:00,30.6,29.6,24.63,North,0,0.0,0.0,96,0.00,,---,0.00,VWS V13.01,2013-02-20 04:58:00,
2013-02-19 21:00:00,30.7,29.7,24.60,North,0,0.0,0.0,96,0.00,,---,0.00,VWS V13.01,2013-02-20 05:00:00,
2013-02-19 21:01:00,30.7,29.7,24.60,North,0,0.0,0.0,96,0.00,,---,0.00,VWS V13.01,2013-02-20 05:01:00,
2013-02-19 21:06:00,30.6,29.6,24.60,NNW,338,0.0,0.0,96,0.00,,---,0.00,VWS V13.01,2013-02-20 05:06:00,
2013-02-19 21:11:00,30.6,29.6,24.60,North,0,0.0,0.0,96,0.00,,---,0.00,VWS V13.01,2013-02-20 05:11:00,
2013-02-19 21:16:00,30.4,29.4,24.60,North,0,0.0,0.0,96,0.00,,---,0.00,VWS V13.01,2013-02-20 05:16:00,
2013-02-19 21:21:00,30.4,29.4,24.60,NE,45,0.0,0.0,96,0.00,,---,0.00,VWS V13.01,2013-02-20 05:21:00,
2013-02-19 21:27:00,30.6,29.6,24.60,North,0,0.0,0.0,96,0.00,,---,0.00,VWS V13.01,2013-02-20 05:27:00,
2013-02-19 21:32:00,30.4,29.4,24.60,NE,45,0.0,0.0,96,0.00,,---,0.00,VWS V13.01,2013-02-20 05:32:00,
2013-02-19 21:37:00,30.2,29.2,24.60,North,0,0.0,0.0,96,0.00,,---,0.00,VWS V13.01,2013-02-20 05:37:00,
2013-02-19 21:42:00,30.4,29.4,24.60,North,0,0.0,0.0,96,0.00,,---,0.00,VWS V13.01,2013-02-20 05:42:00,
2013-02-19 21:47:00,30.4,29.4,24.60,NE,45,0.0,0.0,96,0.00,,---,0.00,VWS V13.01,2013-02-20 05:47:00,
2013-02-19 21:52:00,30.4,29.4,24.60,North,0,0.0,0.0,96,0.00,,---,0.00,VWS V13.01,2013-02-20 05:52:00,
2013-02-19 21:57:00,30.2,28.7,24.60,North,0,0.0,0.0,94,0.00,,---,0.00,VWS V13.01,2013-02-20 05:57:00,
2013-02-19 22:02:00,30.2,28.4,24.60,NE,45,0.0,0.0,93,0.00,,---,0.00,VWS V13.01,2013-02-20 06:02:00,
2013-02-19 22:07:00,30.0,28.2,24.60,North,0,0.0,0.0,93,0.00,,---,0.00,VWS V13.01,2013-02-20 06:07:00,
2013-02-19 22:12:00,30.0,28.2,24.60,North,0,0.0,0.0,93,0.00,,---,0.00,VWS V13.01,2013-02-20 06:12:00,
2013-02-19 22:17:00,30.0,28.2,24.60,North,0,0.0,0.0,93,0.00,,---,0.00,VWS V13.01,2013-02-20 06:17:00,
2013-02-19 22:22:00,29.8,28.1,24.60,North,0,0.0,0.0,93,0.00,,---,0.00,VWS V13.01,2013-02-20 06:22:00,
2013-02-19 22:27:00,29.7,27.6,24.60,NNW,338,0.0,0.0,92,0.00,,---,0.00,VWS V13.01,2013-02-20 06:27:00,
2013-02-19 22:32:00,29.7,27.6,24.60,NNW,338,0.0,0.0,92,0.00,,---,0.00,VWS V13.01,2013-02-20 06:32:00,
2013-02-19 22:37:00,29.3,27.0,24.60,NNW,338,0.0,0.0,91,0.00,,---,0.00,VWS V13.01,2013-02-20 06:37:00,
2013-02-19 22:42:00,29.3,26.7,24.60,East,90,0.0,0.0,90,0.00,,---,0.00,VWS V13.01,2013-02-20 06:42:00,
2013-02-19 22:47:00,28.9,26.4,24.60,North,0,0.0,0.0,90,0.00,,---,0.00,VWS V13.01,2013-02-20 06:47:00,
2013-02-19 22:52:00,28.9,26.1,24.60,North,0,0.0,0.0,89,0.00,,---,0.00,VWS V13.01,2013-02-20 06:52:00,
2013-02-19 22:57:00,28.9,26.1,24.57,NNW,338,0.0,0.0,89,0.00,,---,0.00,VWS V13.01,2013-02-20 06:57:00,
2013-02-19 23:02:00,28.9,26.1,24.57,North,0,0.0,0.0,89,0.00,,---,0.00,VWS V13.01,2013-02-20 07:02:00,
2013-02-19 23:07:00,28.9,26.1,24.57,NE,45,0.0,0.0,89,0.00,,---,0.00,VWS V13.01,2013-02-20 07:07:00,
2013-02-19 23:12:00,28.8,25.9,24.60,North,0,0.0,0.0,89,0.00,,---,0.00,VWS V13.01,2013-02-20 07:12:00,
2013-02-19 23:17:00,28.8,25.7,24.60,NNW,338,0.0,0.0,88,0.00,,---,0.00,VWS V13.01,2013-02-20 07:17:00,
2013-02-19 23:22:00,28.8,25.7,24.60,North,0,0.0,0.0,88,0.00,,---,0.00,VWS V13.01,2013-02-20 07:22:00,
2013-02-19 23:27:00,28.6,25.5,24.60,NNW,338,0.0,0.0,88,0.00,,---,0.00,VWS V13.01,2013-02-20 07:27:00,
2013-02-19 23:32:00,28.6,25.5,24.60,NNW,338,0.0,0.0,88,0.00,,---,0.00,VWS V13.01,2013-02-20 07:32:00,
2013-02-19 23:37:00,28.6,25.5,24.60,NNW,338,0.0,0.0,88,0.00,,---,0.00,VWS V13.01,2013-02-20 07:37:00,
2013-02-19 23:42:00,28.4,25.3,24.57,NNW,338,0.0,0.0,88,0.00,,---,0.00,VWS V13.01,2013-02-20 07:42:00,
2013-02-19 23:47:00,28.2,24.9,24.57,NNW,338,0.0,0.0,87,0.00,,---,0.00,VWS V13.01,2013-02-20 07:47:00,
2013-02-19 23:52:00,28.0,24.7,24.57,NNW,338,0.0,0.0,87,0.00,,---,0.00,VWS V13.01,2013-02-20 07:52:00,
2013-02-19 23:57:00,27.9,24.2,24.57,North,0,0.0,0.0,86,0.00,,---,0.00,VWS V13.01,2013-02-20 07:57:00,